<?xml version="1.0" encoding="UTF-8" standalone="no" ?>
<gpx xmlns="http://www.topografix.com/GPX/1/1" xmlns:xsi="http://www.w3.org/2001/XMLSchema-instance" xsi:schemaLocation="http://www.topografix.com/GPX/1/1 http://www.topografix.com/GPX/1/1/gpx.xsd" version="1.1" creator="VisuGPX - https://www.visugpx.com">
  <metadata>
    <name>rando otsi  henri sellier </name>
    <desc><![CDATA[Rando Henri sellier pour le  20 novembre 2018 remplace fontainebleau ]]></desc>
  </metadata>
  <trk>
    <name><![CDATA[20181119102303-S58zl]]></name>
    <trkseg>
      <trkpt lat="48.77968" lon="2.28047">
        <ele>100</ele>
        <time>2018-02-07T08:32:25 01:00</time>
      </trkpt>
      <trkpt lat="48.77965" lon="2.2802">
        <ele>101</ele>
        <time>2018-02-07T08:32:30 01:00</time>
      </trkpt>
      <trkpt lat="48.77984" lon="2.27935">
        <ele>102</ele>
        <time>2018-02-07T08:32:35 01:00</time>
      </trkpt>
      <trkpt lat="48.78004" lon="2.27848">
        <ele>104</ele>
        <time>2018-02-07T08:32:40 01:00</time>
      </trkpt>
      <trkpt lat="48.78031" lon="2.27735">
        <ele>106</ele>
        <time>2018-02-07T08:32:45 01:00</time>
      </trkpt>
      <trkpt lat="48.7804" lon="2.27705">
        <ele>107</ele>
        <time>2018-02-07T08:32:50 01:00</time>
      </trkpt>
      <trkpt lat="48.78041" lon="2.27685">
        <ele>108</ele>
        <time>2018-02-07T08:32:55 01:00</time>
      </trkpt>
      <trkpt lat="48.78064" lon="2.2766">
        <ele>109</ele>
        <time>2018-02-07T08:33:00 01:00</time>
      </trkpt>
      <trkpt lat="48.78094" lon="2.27638">
        <ele>109</ele>
        <time>2018-02-07T08:33:05 01:00</time>
      </trkpt>
      <trkpt lat="48.78112" lon="2.27631">
        <ele>108</ele>
        <time>2018-02-07T08:33:10 01:00</time>
      </trkpt>
      <trkpt lat="48.78125" lon="2.27628">
        <ele>106</ele>
        <time>2018-02-07T08:33:15 01:00</time>
      </trkpt>
      <trkpt lat="48.78139" lon="2.27618">
        <ele>105</ele>
        <time>2018-02-07T08:33:20 01:00</time>
      </trkpt>
      <trkpt lat="48.78145" lon="2.27595">
        <ele>105</ele>
        <time>2018-02-07T08:33:25 01:00</time>
      </trkpt>
      <trkpt lat="48.78151" lon="2.27561">
        <ele>105</ele>
        <time>2018-02-07T08:33:30 01:00</time>
      </trkpt>
      <trkpt lat="48.78163" lon="2.27501">
        <ele>106</ele>
        <time>2018-02-07T08:33:35 01:00</time>
      </trkpt>
      <trkpt lat="48.78119" lon="2.27473">
        <ele>109</ele>
        <time>2018-02-07T08:33:40 01:00</time>
      </trkpt>
      <trkpt lat="48.78034" lon="2.27421">
        <ele>115</ele>
        <time>2018-02-07T08:33:45 01:00</time>
      </trkpt>
      <trkpt lat="48.7798" lon="2.27381">
        <ele>118</ele>
        <time>2018-02-07T08:33:50 01:00</time>
      </trkpt>
      <trkpt lat="48.77979" lon="2.2737">
        <ele>119</ele>
        <time>2018-02-07T08:33:55 01:00</time>
      </trkpt>
      <trkpt lat="48.77999" lon="2.27338">
        <ele>121</ele>
        <time>2018-02-07T08:34:00 01:00</time>
      </trkpt>
      <trkpt lat="48.77985" lon="2.27316">
        <ele>122</ele>
        <time>2018-02-07T08:34:05 01:00</time>
      </trkpt>
      <trkpt lat="48.77994" lon="2.27287">
        <ele>125</ele>
        <time>2018-02-07T08:34:10 01:00</time>
      </trkpt>
      <trkpt lat="48.78008" lon="2.27268">
        <ele>127</ele>
        <time>2018-02-07T08:34:15 01:00</time>
      </trkpt>
      <trkpt lat="48.78016" lon="2.27255">
        <ele>128</ele>
        <time>2018-02-07T08:34:20 01:00</time>
      </trkpt>
      <trkpt lat="48.78024" lon="2.27242">
        <ele>130</ele>
        <time>2018-02-07T08:34:25 01:00</time>
      </trkpt>
      <trkpt lat="48.78028" lon="2.27226">
        <ele>132</ele>
        <time>2018-02-07T08:34:30 01:00</time>
      </trkpt>
      <trkpt lat="48.78026" lon="2.27211">
        <ele>134</ele>
        <time>2018-02-07T08:34:35 01:00</time>
      </trkpt>
      <trkpt lat="48.78024" lon="2.27199">
        <ele>135</ele>
        <time>2018-02-07T08:34:40 01:00</time>
      </trkpt>
      <trkpt lat="48.78025" lon="2.27182">
        <ele>137</ele>
        <time>2018-02-07T08:34:45 01:00</time>
      </trkpt>
      <trkpt lat="48.78015" lon="2.27164">
        <ele>140</ele>
        <time>2018-02-07T08:34:50 01:00</time>
      </trkpt>
      <trkpt lat="48.78004" lon="2.2715">
        <ele>143</ele>
        <time>2018-02-07T08:34:55 01:00</time>
      </trkpt>
      <trkpt lat="48.77992" lon="2.27147">
        <ele>143</ele>
        <time>2018-02-07T08:35:00 01:00</time>
      </trkpt>
      <trkpt lat="48.77981" lon="2.27138">
        <ele>144</ele>
        <time>2018-02-07T08:35:05 01:00</time>
      </trkpt>
      <trkpt lat="48.77959" lon="2.27123">
        <ele>146</ele>
        <time>2018-02-07T08:35:10 01:00</time>
      </trkpt>
      <trkpt lat="48.77932" lon="2.27106">
        <ele>147</ele>
        <time>2018-02-07T08:35:15 01:00</time>
      </trkpt>
      <trkpt lat="48.7792" lon="2.27075">
        <ele>152</ele>
        <time>2018-02-07T08:35:20 01:00</time>
      </trkpt>
      <trkpt lat="48.77912" lon="2.27053">
        <ele>155</ele>
        <time>2018-02-07T08:35:25 01:00</time>
      </trkpt>
      <trkpt lat="48.77901" lon="2.27042">
        <ele>155</ele>
        <time>2018-02-07T08:35:30 01:00</time>
      </trkpt>
      <trkpt lat="48.77883" lon="2.27033">
        <ele>154</ele>
        <time>2018-02-07T08:35:35 01:00</time>
      </trkpt>
      <trkpt lat="48.77864" lon="2.2703">
        <ele>153</ele>
        <time>2018-02-07T08:35:40 01:00</time>
      </trkpt>
      <trkpt lat="48.7785" lon="2.27012">
        <ele>152</ele>
        <time>2018-02-07T08:35:45 01:00</time>
      </trkpt>
      <trkpt lat="48.77842" lon="2.26997">
        <ele>152</ele>
        <time>2018-02-07T08:35:50 01:00</time>
      </trkpt>
      <trkpt lat="48.7784" lon="2.26979">
        <ele>153</ele>
        <time>2018-02-07T08:35:55 01:00</time>
      </trkpt>
      <trkpt lat="48.77842" lon="2.2695">
        <ele>155</ele>
        <time>2018-02-07T08:36:00 01:00</time>
      </trkpt>
      <trkpt lat="48.77852" lon="2.26936">
        <ele>157</ele>
        <time>2018-02-07T08:36:05 01:00</time>
      </trkpt>
      <trkpt lat="48.77836" lon="2.26917">
        <ele>155.4</ele>
      </trkpt>
      <trkpt lat="48.77824" lon="2.26893">
        <ele>152.7</ele>
      </trkpt>
      <trkpt lat="48.77805" lon="2.26863">
        <ele>152.5</ele>
      </trkpt>
      <trkpt lat="48.77782" lon="2.26819">
        <ele>156</ele>
      </trkpt>
      <trkpt lat="48.77759" lon="2.26758">
        <ele>157</ele>
      </trkpt>
      <trkpt lat="48.77746" lon="2.2674">
        <ele>155</ele>
      </trkpt>
      <trkpt lat="48.77752" lon="2.26723">
        <ele>162.1</ele>
      </trkpt>
      <trkpt lat="48.77818" lon="2.26847">
        <ele>155.5</ele>
      </trkpt>
      <trkpt lat="48.77839" lon="2.26892">
        <ele>159.9</ele>
      </trkpt>
      <trkpt lat="48.77865" lon="2.26934">
        <ele>159</ele>
        <time>2018-02-07T08:36:35 01:00</time>
      </trkpt>
      <trkpt lat="48.7787" lon="2.26943">
        <ele>159</ele>
        <time>2018-02-07T08:36:40 01:00</time>
      </trkpt>
      <trkpt lat="48.77881" lon="2.26931">
        <ele>161</ele>
        <time>2018-02-07T08:36:45 01:00</time>
      </trkpt>
      <trkpt lat="48.77896" lon="2.26956">
        <ele>162</ele>
        <time>2018-02-07T08:36:50 01:00</time>
      </trkpt>
      <trkpt lat="48.77913" lon="2.26992">
        <ele>161</ele>
      </trkpt>
      <trkpt lat="48.77931" lon="2.26978">
        <ele>162</ele>
      </trkpt>
      <trkpt lat="48.77951" lon="2.26974">
        <ele>161</ele>
      </trkpt>
      <trkpt lat="48.77965" lon="2.26981">
        <ele>160</ele>
      </trkpt>
      <trkpt lat="48.77982" lon="2.26975">
        <ele>160</ele>
      </trkpt>
      <trkpt lat="48.77991" lon="2.26952">
        <ele>159.9</ele>
      </trkpt>
      <trkpt lat="48.77999" lon="2.26906">
        <ele>160</ele>
      </trkpt>
      <trkpt lat="48.77984" lon="2.26832">
        <ele>163.1</ele>
      </trkpt>
      <trkpt lat="48.77991" lon="2.26799">
        <ele>164</ele>
      </trkpt>
      <trkpt lat="48.78022" lon="2.26774">
        <ele>158</ele>
      </trkpt>
      <trkpt lat="48.78029" lon="2.26749">
        <ele>160.8</ele>
      </trkpt>
      <trkpt lat="48.78031" lon="2.26689">
        <ele>161.1</ele>
      </trkpt>
      <trkpt lat="48.78019" lon="2.26658">
        <ele>164</ele>
      </trkpt>
      <trkpt lat="48.77998" lon="2.26634">
        <ele>169.2</ele>
      </trkpt>
      <trkpt lat="48.7798" lon="2.26625">
        <ele>169</ele>
      </trkpt>
      <trkpt lat="48.77965" lon="2.266">
        <ele>169.2</ele>
      </trkpt>
      <trkpt lat="48.77954" lon="2.26573">
        <ele>169</ele>
      </trkpt>
      <trkpt lat="48.77958" lon="2.26529">
        <ele>170</ele>
      </trkpt>
      <trkpt lat="48.77951" lon="2.2649">
        <ele>170</ele>
      </trkpt>
      <trkpt lat="48.77921" lon="2.26443">
        <ele>170.3</ele>
      </trkpt>
      <trkpt lat="48.77894" lon="2.2639">
        <ele>170.1</ele>
      </trkpt>
      <trkpt lat="48.77895" lon="2.26353">
        <ele>171</ele>
      </trkpt>
      <trkpt lat="48.77907" lon="2.26315">
        <ele>171</ele>
      </trkpt>
      <trkpt lat="48.77931" lon="2.26286">
        <ele>167</ele>
      </trkpt>
      <trkpt lat="48.77967" lon="2.26309">
        <ele>165</ele>
      </trkpt>
      <trkpt lat="48.78004" lon="2.26341">
        <ele>161</ele>
      </trkpt>
      <trkpt lat="48.78018" lon="2.26378">
        <ele>160</ele>
      </trkpt>
      <trkpt lat="48.78026" lon="2.26421">
        <ele>165</ele>
      </trkpt>
      <trkpt lat="48.78039" lon="2.26442">
        <ele>163</ele>
      </trkpt>
      <trkpt lat="48.78053" lon="2.26455">
        <ele>162.7</ele>
      </trkpt>
      <trkpt lat="48.78128" lon="2.26533">
        <ele>153</ele>
      </trkpt>
      <trkpt lat="48.7818" lon="2.26537">
        <ele>145</ele>
      </trkpt>
      <trkpt lat="48.78208" lon="2.26549">
        <ele>143</ele>
      </trkpt>
      <trkpt lat="48.78229" lon="2.26577">
        <ele>142</ele>
      </trkpt>
      <trkpt lat="48.78221" lon="2.26653">
        <ele>141</ele>
      </trkpt>
      <trkpt lat="48.78187" lon="2.26654">
        <ele>142</ele>
      </trkpt>
      <trkpt lat="48.78167" lon="2.26665">
        <ele>142</ele>
      </trkpt>
      <trkpt lat="48.78124" lon="2.2669">
        <ele>147.2</ele>
      </trkpt>
      <trkpt lat="48.78125" lon="2.26724">
        <ele>146.9</ele>
      </trkpt>
      <trkpt lat="48.78144" lon="2.26746">
        <ele>145</ele>
      </trkpt>
      <trkpt lat="48.78173" lon="2.26749">
        <ele>142</ele>
      </trkpt>
      <trkpt lat="48.7822" lon="2.26741">
        <ele>139</ele>
      </trkpt>
      <trkpt lat="48.78244" lon="2.26718">
        <ele>138.8</ele>
      </trkpt>
      <trkpt lat="48.78252" lon="2.26697">
        <ele>133.1</ele>
      </trkpt>
      <trkpt lat="48.78251" lon="2.26675">
        <ele>136</ele>
      </trkpt>
      <trkpt lat="48.78225" lon="2.26509">
        <ele>140.9</ele>
      </trkpt>
      <trkpt lat="48.78218" lon="2.2647">
        <ele>140.2</ele>
      </trkpt>
      <trkpt lat="48.78196" lon="2.26448">
        <ele>142</ele>
      </trkpt>
      <trkpt lat="48.78177" lon="2.26436">
        <ele>143</ele>
      </trkpt>
      <trkpt lat="48.78156" lon="2.26409">
        <ele>146.5</ele>
      </trkpt>
      <trkpt lat="48.78136" lon="2.26396">
        <ele>147.3</ele>
      </trkpt>
      <trkpt lat="48.78123" lon="2.26389">
        <ele>149</ele>
        <time>2018-02-07T08:38:10 01:00</time>
      </trkpt>
      <trkpt lat="48.78129" lon="2.2637">
        <ele>146.6</ele>
      </trkpt>
      <trkpt lat="48.78112" lon="2.26367">
        <ele>147</ele>
        <time>2018-02-07T08:38:20 01:00</time>
      </trkpt>
      <trkpt lat="48.78118" lon="2.26336">
        <ele>144</ele>
        <time>2018-02-07T08:38:25 01:00</time>
      </trkpt>
      <trkpt lat="48.78167" lon="2.26362">
        <ele>143</ele>
        <time>2018-02-07T08:38:30 01:00</time>
      </trkpt>
      <trkpt lat="48.78171" lon="2.26351">
        <ele>142</ele>
        <time>2018-02-07T08:38:35 01:00</time>
      </trkpt>
      <trkpt lat="48.78168" lon="2.26344">
        <ele>142</ele>
        <time>2018-02-07T08:38:40 01:00</time>
      </trkpt>
      <trkpt lat="48.78167" lon="2.26331">
        <ele>141</ele>
        <time>2018-02-07T08:38:45 01:00</time>
      </trkpt>
      <trkpt lat="48.78172" lon="2.26314">
        <ele>141</ele>
        <time>2018-02-07T08:38:50 01:00</time>
      </trkpt>
      <trkpt lat="48.78183" lon="2.26297">
        <ele>142</ele>
        <time>2018-02-07T08:38:55 01:00</time>
      </trkpt>
      <trkpt lat="48.78194" lon="2.26288">
        <ele>142</ele>
        <time>2018-02-07T08:39:00 01:00</time>
      </trkpt>
      <trkpt lat="48.78204" lon="2.2627">
        <ele>142</ele>
        <time>2018-02-07T08:39:05 01:00</time>
      </trkpt>
      <trkpt lat="48.78214" lon="2.26254">
        <ele>142</ele>
        <time>2018-02-07T08:39:10 01:00</time>
      </trkpt>
      <trkpt lat="48.78225" lon="2.26252">
        <ele>142</ele>
        <time>2018-02-07T08:39:15 01:00</time>
      </trkpt>
      <trkpt lat="48.78235" lon="2.26223">
        <ele>143</ele>
        <time>2018-02-07T08:39:20 01:00</time>
      </trkpt>
      <trkpt lat="48.78259" lon="2.26245">
        <ele>141</ele>
        <time>2018-02-07T08:39:25 01:00</time>
      </trkpt>
      <trkpt lat="48.78274" lon="2.26261">
        <ele>139</ele>
        <time>2018-02-07T08:39:30 01:00</time>
      </trkpt>
      <trkpt lat="48.78284" lon="2.26262">
        <ele>137</ele>
        <time>2018-02-07T08:39:35 01:00</time>
      </trkpt>
      <trkpt lat="48.78283" lon="2.26239">
        <ele>139</ele>
        <time>2018-02-07T08:39:40 01:00</time>
      </trkpt>
      <trkpt lat="48.78286" lon="2.26236">
        <ele>138</ele>
        <time>2018-02-07T08:39:45 01:00</time>
      </trkpt>
      <trkpt lat="48.78287" lon="2.26211">
        <ele>140</ele>
        <time>2018-02-07T08:39:50 01:00</time>
      </trkpt>
      <trkpt lat="48.78315" lon="2.26202">
        <ele>137</ele>
        <time>2018-02-07T08:39:55 01:00</time>
      </trkpt>
      <trkpt lat="48.78379" lon="2.26181">
        <ele>139</ele>
        <time>2018-02-07T08:40:00 01:00</time>
      </trkpt>
      <trkpt lat="48.78395" lon="2.26177">
        <ele>139</ele>
        <time>2018-02-07T08:40:05 01:00</time>
      </trkpt>
      <trkpt lat="48.78413" lon="2.26185">
        <ele>140</ele>
        <time>2018-02-07T08:40:10 01:00</time>
      </trkpt>
      <trkpt lat="48.78421" lon="2.26274">
        <ele>142</ele>
        <time>2018-02-07T08:40:15 01:00</time>
      </trkpt>
      <trkpt lat="48.78428" lon="2.26342">
        <ele>144</ele>
        <time>2018-02-07T08:40:20 01:00</time>
      </trkpt>
      <trkpt lat="48.78442" lon="2.26376">
        <ele>147.3</ele>
      </trkpt>
      <trkpt lat="48.78459" lon="2.26398">
        <ele>148.7</ele>
      </trkpt>
      <trkpt lat="48.78469" lon="2.26397">
        <ele>150</ele>
      </trkpt>
      <trkpt lat="48.78488" lon="2.26391">
        <ele>152.4</ele>
      </trkpt>
      <trkpt lat="48.7851" lon="2.26458">
        <ele>149</ele>
      </trkpt>
      <trkpt lat="48.78531" lon="2.26483">
        <ele>147.2</ele>
      </trkpt>
      <trkpt lat="48.78538" lon="2.26437">
        <ele>150</ele>
      </trkpt>
      <trkpt lat="48.78524" lon="2.26193">
        <ele>165.1</ele>
      </trkpt>
      <trkpt lat="48.7848" lon="2.2618">
        <ele>156.8</ele>
      </trkpt>
      <trkpt lat="48.78488" lon="2.26128">
        <ele>160</ele>
        <time>2018-02-07T08:40:50 01:00</time>
      </trkpt>
      <trkpt lat="48.78495" lon="2.26085">
        <ele>160</ele>
        <time>2018-02-07T08:40:55 01:00</time>
      </trkpt>
      <trkpt lat="48.78496" lon="2.2607">
        <ele>159</ele>
        <time>2018-02-07T08:41:00 01:00</time>
      </trkpt>
      <trkpt lat="48.78497" lon="2.26051">
        <ele>158</ele>
        <time>2018-02-07T08:41:05 01:00</time>
      </trkpt>
      <trkpt lat="48.78499" lon="2.2601">
        <ele>156</ele>
        <time>2018-02-07T08:41:10 01:00</time>
      </trkpt>
      <trkpt lat="48.785" lon="2.25969">
        <ele>156</ele>
        <time>2018-02-07T08:41:15 01:00</time>
      </trkpt>
      <trkpt lat="48.78502" lon="2.25929">
        <ele>155</ele>
        <time>2018-02-07T08:41:20 01:00</time>
      </trkpt>
      <trkpt lat="48.78505" lon="2.25897">
        <ele>156</ele>
        <time>2018-02-07T08:41:25 01:00</time>
      </trkpt>
      <trkpt lat="48.78504" lon="2.25882">
        <ele>156</ele>
        <time>2018-02-07T08:41:30 01:00</time>
      </trkpt>
      <trkpt lat="48.78505" lon="2.25837">
        <ele>158</ele>
        <time>2018-02-07T08:41:35 01:00</time>
      </trkpt>
      <trkpt lat="48.78505" lon="2.25802">
        <ele>161</ele>
        <time>2018-02-07T08:41:40 01:00</time>
      </trkpt>
      <trkpt lat="48.78493" lon="2.25767">
        <ele>165</ele>
        <time>2018-02-07T08:41:45 01:00</time>
      </trkpt>
      <trkpt lat="48.7848" lon="2.25761">
        <ele>164</ele>
        <time>2018-02-07T08:41:50 01:00</time>
      </trkpt>
      <trkpt lat="48.78475" lon="2.25754">
        <ele>165</ele>
        <time>2018-02-07T08:41:55 01:00</time>
      </trkpt>
      <trkpt lat="48.78473" lon="2.25741">
        <ele>165</ele>
        <time>2018-02-07T08:42:00 01:00</time>
      </trkpt>
      <trkpt lat="48.78467" lon="2.25713">
        <ele>165</ele>
        <time>2018-02-07T08:42:05 01:00</time>
      </trkpt>
      <trkpt lat="48.78454" lon="2.25714">
        <ele>164</ele>
        <time>2018-02-07T08:42:10 01:00</time>
      </trkpt>
      <trkpt lat="48.78448" lon="2.25724">
        <ele>164</ele>
        <time>2018-02-07T08:42:15 01:00</time>
      </trkpt>
      <trkpt lat="48.78439" lon="2.25728">
        <ele>163</ele>
        <time>2018-02-07T08:42:20 01:00</time>
      </trkpt>
      <trkpt lat="48.78434" lon="2.25721">
        <ele>163</ele>
        <time>2018-02-07T08:42:25 01:00</time>
      </trkpt>
      <trkpt lat="48.78426" lon="2.25716">
        <ele>162</ele>
        <time>2018-02-07T08:42:30 01:00</time>
      </trkpt>
      <trkpt lat="48.78408" lon="2.25721">
        <ele>161</ele>
        <time>2018-02-07T08:42:35 01:00</time>
      </trkpt>
      <trkpt lat="48.78388" lon="2.25726">
        <ele>160</ele>
        <time>2018-02-07T08:42:40 01:00</time>
      </trkpt>
      <trkpt lat="48.78375" lon="2.25723">
        <ele>160</ele>
        <time>2018-02-07T08:42:45 01:00</time>
      </trkpt>
      <trkpt lat="48.78363" lon="2.25715">
        <ele>160</ele>
        <time>2018-02-07T08:42:50 01:00</time>
      </trkpt>
      <trkpt lat="48.78319" lon="2.25684">
        <ele>159</ele>
        <time>2018-02-07T08:42:55 01:00</time>
      </trkpt>
      <trkpt lat="48.78293" lon="2.25769">
        <ele>159</ele>
        <time>2018-02-07T08:43:00 01:00</time>
      </trkpt>
      <trkpt lat="48.78268" lon="2.2585">
        <ele>156</ele>
        <time>2018-02-07T08:43:05 01:00</time>
      </trkpt>
      <trkpt lat="48.78258" lon="2.25877">
        <ele>155</ele>
        <time>2018-02-07T08:43:10 01:00</time>
      </trkpt>
      <trkpt lat="48.78249" lon="2.25882">
        <ele>155</ele>
        <time>2018-02-07T08:43:15 01:00</time>
      </trkpt>
      <trkpt lat="48.78243" lon="2.25868">
        <ele>156</ele>
        <time>2018-02-07T08:43:20 01:00</time>
      </trkpt>
      <trkpt lat="48.78229" lon="2.25869">
        <ele>157</ele>
        <time>2018-02-07T08:43:25 01:00</time>
      </trkpt>
      <trkpt lat="48.78227" lon="2.25829">
        <ele>159</ele>
        <time>2018-02-07T08:43:30 01:00</time>
      </trkpt>
      <trkpt lat="48.78166" lon="2.25813">
        <ele>161</ele>
        <time>2018-02-07T08:43:35 01:00</time>
      </trkpt>
      <trkpt lat="48.78163" lon="2.25805">
        <ele>161</ele>
        <time>2018-02-07T08:43:40 01:00</time>
      </trkpt>
      <trkpt lat="48.78145" lon="2.25798">
        <ele>162</ele>
        <time>2018-02-07T08:43:45 01:00</time>
      </trkpt>
      <trkpt lat="48.78099" lon="2.25782">
        <ele>163</ele>
        <time>2018-02-07T08:43:50 01:00</time>
      </trkpt>
      <trkpt lat="48.7806" lon="2.25769">
        <ele>164</ele>
        <time>2018-02-07T08:43:55 01:00</time>
      </trkpt>
      <trkpt lat="48.78033" lon="2.25758">
        <ele>166</ele>
        <time>2018-02-07T08:44:00 01:00</time>
      </trkpt>
      <trkpt lat="48.78033" lon="2.2574">
        <ele>166</ele>
        <time>2018-02-07T08:44:05 01:00</time>
      </trkpt>
      <trkpt lat="48.7801" lon="2.25729">
        <ele>167</ele>
        <time>2018-02-07T08:44:10 01:00</time>
      </trkpt>
      <trkpt lat="48.7799" lon="2.25721">
        <ele>168</ele>
        <time>2018-02-07T08:44:15 01:00</time>
      </trkpt>
      <trkpt lat="48.77952" lon="2.25716">
        <ele>169</ele>
        <time>2018-02-07T08:44:20 01:00</time>
      </trkpt>
      <trkpt lat="48.77938" lon="2.2572">
        <ele>169</ele>
        <time>2018-02-07T08:44:25 01:00</time>
      </trkpt>
      <trkpt lat="48.77924" lon="2.25731">
        <ele>169</ele>
        <time>2018-02-07T08:44:30 01:00</time>
      </trkpt>
      <trkpt lat="48.77917" lon="2.2574">
        <ele>169</ele>
        <time>2018-02-07T08:44:35 01:00</time>
      </trkpt>
      <trkpt lat="48.77907" lon="2.25749">
        <ele>169</ele>
        <time>2018-02-07T08:44:40 01:00</time>
      </trkpt>
      <trkpt lat="48.77898" lon="2.25751">
        <ele>169</ele>
        <time>2018-02-07T08:44:45 01:00</time>
      </trkpt>
      <trkpt lat="48.7789" lon="2.25757">
        <ele>169</ele>
        <time>2018-02-07T08:44:50 01:00</time>
      </trkpt>
      <trkpt lat="48.77878" lon="2.25763">
        <ele>168</ele>
        <time>2018-02-07T08:44:55 01:00</time>
      </trkpt>
      <trkpt lat="48.7787" lon="2.25756">
        <ele>168</ele>
        <time>2018-02-07T08:45:00 01:00</time>
      </trkpt>
      <trkpt lat="48.77864" lon="2.25758">
        <ele>168</ele>
        <time>2018-02-07T08:45:05 01:00</time>
      </trkpt>
      <trkpt lat="48.77857" lon="2.25765">
        <ele>168</ele>
        <time>2018-02-07T08:45:10 01:00</time>
      </trkpt>
      <trkpt lat="48.77849" lon="2.25774">
        <ele>168</ele>
        <time>2018-02-07T08:45:15 01:00</time>
      </trkpt>
      <trkpt lat="48.77852" lon="2.25784">
        <ele>168</ele>
        <time>2018-02-07T08:45:20 01:00</time>
      </trkpt>
      <trkpt lat="48.77837" lon="2.25796">
        <ele>167</ele>
        <time>2018-02-07T08:45:25 01:00</time>
      </trkpt>
      <trkpt lat="48.77827" lon="2.2581">
        <ele>167</ele>
        <time>2018-02-07T08:45:30 01:00</time>
      </trkpt>
      <trkpt lat="48.77819" lon="2.25806">
        <ele>167</ele>
        <time>2018-02-07T08:45:35 01:00</time>
      </trkpt>
      <trkpt lat="48.77809" lon="2.25765">
        <ele>168</ele>
        <time>2018-02-07T08:45:40 01:00</time>
      </trkpt>
      <trkpt lat="48.77818" lon="2.25766">
        <ele>168</ele>
        <time>2018-02-07T08:45:45 01:00</time>
      </trkpt>
      <trkpt lat="48.77799" lon="2.25717">
        <ele>169</ele>
        <time>2018-02-07T08:45:50 01:00</time>
      </trkpt>
      <trkpt lat="48.77788" lon="2.25669">
        <ele>170</ele>
        <time>2018-02-07T08:45:55 01:00</time>
      </trkpt>
      <trkpt lat="48.77772" lon="2.25631">
        <ele>171</ele>
        <time>2018-02-07T08:46:00 01:00</time>
      </trkpt>
      <trkpt lat="48.7776" lon="2.25596">
        <ele>172</ele>
        <time>2018-02-07T08:46:05 01:00</time>
      </trkpt>
      <trkpt lat="48.77756" lon="2.25591">
        <ele>172</ele>
        <time>2018-02-07T08:46:10 01:00</time>
      </trkpt>
      <trkpt lat="48.77747" lon="2.25591">
        <ele>172</ele>
        <time>2018-02-07T08:46:15 01:00</time>
      </trkpt>
      <trkpt lat="48.77736" lon="2.25595">
        <ele>171</ele>
        <time>2018-02-07T08:46:20 01:00</time>
      </trkpt>
      <trkpt lat="48.77732" lon="2.25607">
        <ele>171</ele>
        <time>2018-02-07T08:46:25 01:00</time>
      </trkpt>
      <trkpt lat="48.77718" lon="2.25639">
        <ele>170</ele>
        <time>2018-02-07T08:46:30 01:00</time>
      </trkpt>
      <trkpt lat="48.777" lon="2.25673">
        <ele>169</ele>
        <time>2018-02-07T08:46:35 01:00</time>
      </trkpt>
      <trkpt lat="48.77675" lon="2.25632">
        <ele>170</ele>
        <time>2018-02-07T08:46:40 01:00</time>
      </trkpt>
      <trkpt lat="48.77649" lon="2.25672">
        <ele>170</ele>
        <time>2018-02-07T08:46:45 01:00</time>
      </trkpt>
      <trkpt lat="48.77633" lon="2.25698">
        <ele>170</ele>
        <time>2018-02-07T08:46:50 01:00</time>
      </trkpt>
      <trkpt lat="48.77628" lon="2.25712">
        <ele>170.2</ele>
      </trkpt>
      <trkpt lat="48.77628" lon="2.25734">
        <ele>170</ele>
      </trkpt>
      <trkpt lat="48.77616" lon="2.25746">
        <ele>170.2</ele>
      </trkpt>
      <trkpt lat="48.7761" lon="2.25767">
        <ele>170</ele>
      </trkpt>
      <trkpt lat="48.77608" lon="2.25777">
        <ele>170.3</ele>
      </trkpt>
      <trkpt lat="48.77612" lon="2.25799">
        <ele>170</ele>
      </trkpt>
      <trkpt lat="48.77618" lon="2.25821">
        <ele>170</ele>
      </trkpt>
      <trkpt lat="48.77629" lon="2.25838">
        <ele>171</ele>
      </trkpt>
      <trkpt lat="48.77644" lon="2.25864">
        <ele>171</ele>
      </trkpt>
      <trkpt lat="48.77649" lon="2.25883">
        <ele>171.4</ele>
      </trkpt>
      <trkpt lat="48.77642" lon="2.25894">
        <ele>172</ele>
      </trkpt>
      <trkpt lat="48.77629" lon="2.25894">
        <ele>172</ele>
      </trkpt>
      <trkpt lat="48.77618" lon="2.25888">
        <ele>172</ele>
      </trkpt>
      <trkpt lat="48.77611" lon="2.25881">
        <ele>171.7</ele>
      </trkpt>
      <trkpt lat="48.77599" lon="2.25865">
        <ele>171.7</ele>
      </trkpt>
      <trkpt lat="48.77589" lon="2.25848">
        <ele>171.8</ele>
      </trkpt>
      <trkpt lat="48.77584" lon="2.25831">
        <ele>171.8</ele>
      </trkpt>
      <trkpt lat="48.77571" lon="2.25809">
        <ele>171.9</ele>
      </trkpt>
      <trkpt lat="48.77562" lon="2.25809">
        <ele>172</ele>
      </trkpt>
      <trkpt lat="48.77542" lon="2.25833">
        <ele>172</ele>
      </trkpt>
      <trkpt lat="48.77525" lon="2.25862">
        <ele>174</ele>
        <time>2018-02-07T08:47:10 01:00</time>
      </trkpt>
      <trkpt lat="48.77515" lon="2.25877">
        <ele>174</ele>
        <time>2018-02-07T08:47:15 01:00</time>
      </trkpt>
      <trkpt lat="48.77527" lon="2.259">
        <ele>174</ele>
        <time>2018-02-07T08:47:20 01:00</time>
      </trkpt>
      <trkpt lat="48.77538" lon="2.25924">
        <ele>173.7</ele>
      </trkpt>
      <trkpt lat="48.77532" lon="2.25957">
        <ele>174</ele>
      </trkpt>
      <trkpt lat="48.77536" lon="2.25972">
        <ele>173</ele>
      </trkpt>
      <trkpt lat="48.77554" lon="2.25993">
        <ele>173.1</ele>
      </trkpt>
      <trkpt lat="48.77587" lon="2.26044">
        <ele>171.8</ele>
      </trkpt>
      <trkpt lat="48.77595" lon="2.26058">
        <ele>172</ele>
      </trkpt>
      <trkpt lat="48.77559" lon="2.26116">
        <ele>170.8</ele>
      </trkpt>
      <trkpt lat="48.77591" lon="2.26163">
        <ele>170.4</ele>
      </trkpt>
      <trkpt lat="48.77558" lon="2.26214">
        <ele>169.2</ele>
      </trkpt>
      <trkpt lat="48.77542" lon="2.26245">
        <ele>169</ele>
        <time>2018-02-07T08:48:05 01:00</time>
      </trkpt>
      <trkpt lat="48.77552" lon="2.2627">
        <ele>168</ele>
        <time>2018-02-07T08:48:10 01:00</time>
      </trkpt>
      <trkpt lat="48.77566" lon="2.26329">
        <ele>166.6</ele>
      </trkpt>
      <trkpt lat="48.77575" lon="2.26381">
        <ele>163.3</ele>
      </trkpt>
      <trkpt lat="48.77604" lon="2.26525">
        <ele>165.4</ele>
      </trkpt>
      <trkpt lat="48.77559" lon="2.26592">
        <ele>153.1</ele>
      </trkpt>
      <trkpt lat="48.77542" lon="2.26603">
        <ele>150</ele>
      </trkpt>
      <trkpt lat="48.77522" lon="2.26589">
        <ele>147</ele>
      </trkpt>
      <trkpt lat="48.77494" lon="2.26614">
        <ele>140</ele>
      </trkpt>
      <trkpt lat="48.77486" lon="2.26645">
        <ele>140</ele>
      </trkpt>
      <trkpt lat="48.7749" lon="2.26679">
        <ele>138</ele>
      </trkpt>
      <trkpt lat="48.77507" lon="2.26693">
        <ele>140</ele>
      </trkpt>
      <trkpt lat="48.77525" lon="2.267">
        <ele>139</ele>
      </trkpt>
      <trkpt lat="48.77547" lon="2.26702">
        <ele>140</ele>
      </trkpt>
      <trkpt lat="48.77567" lon="2.26699">
        <ele>141</ele>
      </trkpt>
      <trkpt lat="48.77573" lon="2.26707">
        <ele>140.5</ele>
      </trkpt>
      <trkpt lat="48.77556" lon="2.26716">
        <ele>139</ele>
      </trkpt>
      <trkpt lat="48.77528" lon="2.26726">
        <ele>137</ele>
      </trkpt>
      <trkpt lat="48.77477" lon="2.26726">
        <ele>131.4</ele>
      </trkpt>
      <trkpt lat="48.77426" lon="2.26726">
        <ele>129.1</ele>
      </trkpt>
      <trkpt lat="48.77409" lon="2.26696">
        <ele>126.1</ele>
      </trkpt>
      <trkpt lat="48.77413" lon="2.26642">
        <ele>131</ele>
      </trkpt>
      <trkpt lat="48.77404" lon="2.2662">
        <ele>131</ele>
        <time>2018-02-07T08:50:00 01:00</time>
      </trkpt>
      <trkpt lat="48.77374" lon="2.26669">
        <ele>128</ele>
        <time>2018-02-07T08:50:05 01:00</time>
      </trkpt>
      <trkpt lat="48.77353" lon="2.26716">
        <ele>120</ele>
        <time>2018-02-07T08:50:10 01:00</time>
      </trkpt>
      <trkpt lat="48.77343" lon="2.26758">
        <ele>114</ele>
        <time>2018-02-07T08:50:15 01:00</time>
      </trkpt>
      <trkpt lat="48.77292" lon="2.26811">
        <ele>106.6</ele>
      </trkpt>
      <trkpt lat="48.77276" lon="2.26789">
        <ele>106.9</ele>
      </trkpt>
      <trkpt lat="48.77229" lon="2.267">
        <ele>110.7</ele>
      </trkpt>
      <trkpt lat="48.77202" lon="2.26715">
        <ele>109</ele>
      </trkpt>
      <trkpt lat="48.77197" lon="2.26757">
        <ele>103</ele>
      </trkpt>
      <trkpt lat="48.77231" lon="2.26802">
        <ele>103</ele>
      </trkpt>
      <trkpt lat="48.77231" lon="2.26918">
        <ele>98</ele>
      </trkpt>
      <trkpt lat="48.77267" lon="2.26942">
        <ele>98</ele>
      </trkpt>
      <trkpt lat="48.77308" lon="2.26948">
        <ele>99</ele>
      </trkpt>
      <trkpt lat="48.7732" lon="2.2699">
        <ele>99</ele>
      </trkpt>
      <trkpt lat="48.77315" lon="2.27032">
        <ele>97</ele>
      </trkpt>
      <trkpt lat="48.77281" lon="2.27138">
        <ele>95</ele>
      </trkpt>
      <trkpt lat="48.7725" lon="2.27164">
        <ele>94</ele>
      </trkpt>
      <trkpt lat="48.77224" lon="2.27141">
        <ele>95</ele>
      </trkpt>
      <trkpt lat="48.77202" lon="2.27051">
        <ele>96</ele>
      </trkpt>
      <trkpt lat="48.77187" lon="2.26976">
        <ele>98</ele>
      </trkpt>
      <trkpt lat="48.77171" lon="2.27007">
        <ele>98</ele>
      </trkpt>
      <trkpt lat="48.77182" lon="2.27057">
        <ele>97</ele>
      </trkpt>
      <trkpt lat="48.77179" lon="2.27105">
        <ele>97</ele>
      </trkpt>
      <trkpt lat="48.77165" lon="2.27148">
        <ele>98</ele>
      </trkpt>
      <trkpt lat="48.77144" lon="2.27149">
        <ele>98</ele>
      </trkpt>
      <trkpt lat="48.77118" lon="2.2714">
        <ele>98</ele>
      </trkpt>
      <trkpt lat="48.7712" lon="2.27169">
        <ele>96</ele>
      </trkpt>
      <trkpt lat="48.77146" lon="2.27208">
        <ele>96</ele>
      </trkpt>
      <trkpt lat="48.77004" lon="2.27263">
        <ele>96</ele>
      </trkpt>
      <trkpt lat="48.77031" lon="2.2741">
        <ele>95</ele>
      </trkpt>
      <trkpt lat="48.77087" lon="2.27807">
        <ele>92</ele>
      </trkpt>
      <trkpt lat="48.77158" lon="2.28224">
        <ele>89</ele>
      </trkpt>
      <trkpt lat="48.7719" lon="2.28467">
        <ele>83</ele>
      </trkpt>
      <trkpt lat="48.7728" lon="2.28554">
        <ele>78</ele>
      </trkpt>
      <trkpt lat="48.77268" lon="2.28644">
        <ele>76</ele>
      </trkpt>
      <trkpt lat="48.77311" lon="2.28677">
        <ele>75</ele>
      </trkpt>
      <trkpt lat="48.77443" lon="2.29536">
        <ele>81</ele>
      </trkpt>
      <trkpt lat="48.77507" lon="2.29537">
        <ele>88</ele>
      </trkpt>
      <trkpt lat="48.77527" lon="2.29593">
        <ele>90</ele>
      </trkpt>
      <trkpt lat="48.77537" lon="2.29645">
        <ele>91</ele>
      </trkpt>
      <trkpt lat="48.77515" lon="2.29713">
        <ele>92</ele>
      </trkpt>
      <trkpt lat="48.77567" lon="2.29752">
        <ele>95</ele>
      </trkpt>
      <trkpt lat="48.77608" lon="2.2955">
        <ele>93</ele>
      </trkpt>
      <trkpt lat="48.77627" lon="2.29543">
        <ele>94</ele>
      </trkpt>
      <trkpt lat="48.77661" lon="2.29355">
        <ele>93</ele>
      </trkpt>
      <trkpt lat="48.77706" lon="2.29378">
        <ele>98</ele>
      </trkpt>
      <trkpt lat="48.77738" lon="2.29218">
        <ele>100</ele>
      </trkpt>
      <trkpt lat="48.77808" lon="2.29246">
        <ele>103</ele>
      </trkpt>
      <trkpt lat="48.77764" lon="2.2943">
        <ele>102</ele>
      </trkpt>
      <trkpt lat="48.77809" lon="2.29449">
        <ele>103</ele>
      </trkpt>
      <trkpt lat="48.77822" lon="2.29538">
        <ele>102</ele>
      </trkpt>
      <trkpt lat="48.77802" lon="2.29574">
        <ele>102</ele>
      </trkpt>
      <trkpt lat="48.77788" lon="2.29564">
        <ele>102</ele>
      </trkpt>
      <trkpt lat="48.77743" lon="2.29821">
        <ele>96.3</ele>
      </trkpt>
      <trkpt lat="48.77772" lon="2.29862">
        <ele>96</ele>
      </trkpt>
      <trkpt lat="48.77783" lon="2.29885">
        <ele>96.1</ele>
      </trkpt>
      <trkpt lat="48.7778" lon="2.29899">
        <ele>96</ele>
      </trkpt>
      <trkpt lat="48.77741" lon="2.2993">
        <ele>96</ele>
      </trkpt>
      <trkpt lat="48.77728" lon="2.29921">
        <ele>96</ele>
      </trkpt>
      <trkpt lat="48.77723" lon="2.29896">
        <ele>96</ele>
      </trkpt>
      <trkpt lat="48.777" lon="2.299">
        <ele>97</ele>
      </trkpt>
      <trkpt lat="48.77684" lon="2.29912">
        <ele>97</ele>
      </trkpt>
      <trkpt lat="48.77735" lon="2.30236">
        <ele>95</ele>
      </trkpt>
      <trkpt lat="48.77618" lon="2.30282">
        <ele>94</ele>
      </trkpt>
      <trkpt lat="48.776" lon="2.30157">
        <ele>99</ele>
      </trkpt>
      <trkpt lat="48.77419" lon="2.30217">
        <ele>94</ele>
      </trkpt>
      <trkpt lat="48.77443" lon="2.30335">
        <ele>91</ele>
      </trkpt>
      <trkpt lat="48.76889" lon="2.30524">
        <ele>81</ele>
      </trkpt>
      <trkpt lat="48.76644" lon="2.30475">
        <ele>72</ele>
      </trkpt>
      <trkpt lat="48.76575" lon="2.30604">
        <ele>63</ele>
      </trkpt>
      <trkpt lat="48.76514" lon="2.30531">
        <ele>63</ele>
      </trkpt>
      <trkpt lat="48.76395" lon="2.30447">
        <ele>59.7</ele>
      </trkpt>
      <trkpt lat="48.76319" lon="2.3044">
        <ele>58.2</ele>
      </trkpt>
      <trkpt lat="48.76172" lon="2.30284">
        <ele>57</ele>
      </trkpt>
      <trkpt lat="48.76134" lon="2.30329">
        <ele>56</ele>
      </trkpt>
      <trkpt lat="48.75964" lon="2.30252">
        <ele>60</ele>
      </trkpt>
      <trkpt lat="48.7582" lon="2.30185">
        <ele>59</ele>
      </trkpt>
      <trkpt lat="48.75738" lon="2.30172">
        <ele>59</ele>
      </trkpt>
      <trkpt lat="48.75626" lon="2.30114">
        <ele>60</ele>
      </trkpt>
      <trkpt lat="48.75445" lon="2.30033">
        <ele>57.7</ele>
      </trkpt>
    </trkseg>
  </trk>
</gpx>